createdAt,value
2019-06-08T00:00:13.214Z,14.37
2019-06-08T00:02:41.732Z,13.60
2019-06-08T00:05:10.857Z,15.53
2019-06-08T00:07:39.331Z,15.00
2019-06-08T00:10:08.985Z,16.13
2019-06-08T00:12:37.454Z,15.87
2019-06-08T00:15:07.112Z,14.70
2019-06-08T00:17:39.003Z,14.80
2019-06-08T00:20:09.013Z,15.93
2019-06-08T00:22:37.577Z,15.33
2019-06-08T00:25:06.746Z,15.37
2019-06-08T00:27:35.245Z,17.80
2019-06-08T00:30:06.015Z,16.20
2019-06-08T00:32:34.538Z,16.33
2019-06-08T00:35:03.181Z,15.67
2019-06-08T00:37:31.681Z,16.47
2019-06-08T00:40:00.166Z,15.47
2019-06-08T00:42:28.663Z,17.43
2019-06-08T00:44:57.155Z,16.20
2019-06-08T00:47:26.852Z,16.57
2019-06-08T00:49:55.852Z,17.10
2019-06-08T00:52:25.586Z,15.60
2019-06-08T00:54:54.209Z,16.80
2019-06-08T00:57:23.843Z,16.70
2019-06-08T00:59:52.431Z,16.87
2019-06-08T01:02:20.952Z,16.07
2019-06-08T01:04:49.411Z,18.37
2019-06-08T01:07:18.010Z,17.00
2019-06-08T01:09:46.631Z,17.60
2019-06-08T01:12:15.138Z,16.40
2019-06-08T01:14:43.614Z,16.83
2019-06-08T01:17:12.110Z,16.83
2019-06-08T01:19:40.661Z,15.67
2019-06-08T01:22:09.166Z,17.13
2019-06-08T01:24:37.639Z,17.23
2019-06-08T01:27:06.142Z,18.77
2019-06-08T01:29:34.622Z,17.90
2019-06-08T01:32:03.122Z,16.03
2019-06-08T01:34:31.584Z,17.07
2019-06-08T01:37:00.098Z,17.93
2019-06-08T01:39:29.469Z,18.40
2019-06-08T01:41:58.151Z,18.03
2019-06-08T01:44:28.069Z,18.43
2019-06-08T01:46:56.727Z,18.00
2019-06-08T01:49:26.196Z,16.83
2019-06-08T01:51:54.777Z,14.00
2019-06-08T01:54:23.262Z,11.50
2019-06-08T01:56:51.810Z,9.87
2019-06-08T01:59:20.271Z,9.27
2019-06-08T02:01:48.732Z,5.93
2019-06-08T02:04:17.214Z,4.17
2019-06-08T02:06:45.832Z,4.17
2019-06-08T02:09:14.431Z,6.13
2019-06-08T02:11:42.911Z,4.57
2019-06-08T02:14:11.417Z,3.60
2019-06-08T02:16:40.001Z,4.17
2019-06-08T02:19:08.482Z,2.90
2019-06-08T02:21:36.939Z,2.17
2019-06-08T02:24:05.415Z,2.60
2019-06-08T02:26:35.197Z,3.50
2019-06-08T02:29:04.718Z,2.50
2019-06-08T02:31:34.825Z,4.17
2019-06-08T02:34:03.416Z,2.47
2019-06-08T02:36:33.773Z,3.20
2019-06-08T02:39:02.128Z,2.40
2019-06-08T02:41:30.826Z,3.57
2019-06-08T02:43:59.362Z,4.57
2019-06-08T02:46:29.032Z,3.00
2019-06-08T02:49:03.973Z,2.57
2019-06-08T02:51:30.557Z,1.80
2019-06-08T02:53:59.109Z,2.60
2019-06-08T02:56:29.870Z,3.20
2019-06-08T02:59:00.806Z,2.40
2019-06-08T03:01:33.705Z,2.20
2019-06-08T03:04:02.246Z,3.53
2019-06-08T03:06:32.388Z,6.00
2019-06-08T03:09:03.883Z,4.17
2019-06-08T03:11:34.826Z,1.77
2019-06-08T03:14:03.682Z,2.50
2019-06-08T03:16:33.323Z,3.83
2019-06-08T03:19:20.011Z,2.77
2019-06-08T03:21:33.819Z,2.83
2019-06-08T03:24:02.332Z,2.00
2019-06-08T03:26:32.130Z,16.47
2019-06-08T03:29:00.692Z,2.17
2019-06-08T03:31:29.125Z,2.27
2019-06-08T03:33:57.612Z,3.43
2019-06-08T03:36:26.053Z,4.47
2019-06-08T03:38:54.533Z,1.50
2019-06-08T03:41:23.006Z,3.70
2019-06-08T03:43:51.500Z,3.73
2019-06-08T03:46:19.997Z,3.27
2019-06-08T03:48:48.496Z,2.20
2019-06-08T03:51:16.961Z,4.07
2019-06-08T03:53:47.321Z,2.43
2019-06-08T03:56:15.649Z,1.33
2019-06-08T03:58:46.048Z,2.43
2019-06-08T04:01:14.319Z,4.60
2019-06-08T04:03:43.832Z,2.90
2019-06-08T04:06:12.635Z,2.97
2019-06-08T04:08:44.292Z,3.33
2019-06-08T04:11:11.324Z,3.13
2019-06-08T04:13:40.044Z,2.33
2019-06-08T04:16:08.964Z,2.27
2019-06-08T04:18:38.087Z,2.67
2019-06-08T04:21:07.190Z,3.33
2019-06-08T04:23:35.676Z,2.60
2019-06-08T04:26:04.231Z,2.23
2019-06-08T04:28:32.684Z,2.03
2019-06-08T04:31:01.168Z,3.00
2019-06-08T04:33:29.631Z,3.80
2019-06-08T04:35:58.127Z,4.20
2019-06-08T04:38:26.575Z,1.80
2019-06-08T04:40:55.043Z,3.37
2019-06-08T04:43:23.525Z,3.77
2019-06-08T04:45:52.001Z,1.97
2019-06-08T04:48:20.467Z,2.33
2019-06-08T04:50:49.770Z,1.83
2019-06-08T04:53:18.494Z,4.60
2019-06-08T04:55:47.250Z,1.60
2019-06-08T04:58:16.219Z,1.67
2019-06-08T05:00:46.231Z,2.60
2019-06-08T05:03:14.885Z,1.33
2019-06-08T05:05:45.298Z,1.20
2019-06-08T05:08:13.841Z,1.67
2019-06-08T05:10:43.293Z,1.50
2019-06-08T05:13:11.866Z,3.37
2019-06-08T05:15:41.374Z,1.20
2019-06-08T05:18:10.105Z,1.80
2019-06-08T05:20:41.333Z,2.13
2019-06-08T05:23:08.773Z,2.90
2019-06-08T05:25:37.255Z,2.03
2019-06-08T05:28:05.728Z,1.50
2019-06-08T05:30:34.221Z,2.00
2019-06-08T05:33:02.702Z,2.07
2019-06-08T05:35:31.226Z,1.80
2019-06-08T05:37:59.675Z,3.03
2019-06-08T05:40:28.169Z,1.70
2019-06-08T05:42:56.632Z,1.63
2019-06-08T05:45:25.116Z,7.97
2019-06-08T05:47:53.585Z,3.37
2019-06-08T05:50:22.082Z,2.27
2019-06-08T05:52:50.550Z,3.33
2019-06-08T05:55:19.030Z,2.50
2019-06-08T05:57:48.385Z,2.70
2019-06-08T06:00:17.335Z,2.87
2019-06-08T06:02:46.968Z,3.60
2019-06-08T06:05:17.000Z,2.37
2019-06-08T06:07:46.693Z,2.67
2019-06-08T06:10:15.662Z,1.53
2019-06-08T06:12:45.294Z,2.00
2019-06-08T06:15:14.757Z,2.80
2019-06-08T06:17:44.302Z,1.63
2019-06-08T06:20:14.086Z,2.40
2019-06-08T06:22:43.927Z,2.30
2019-06-08T06:25:13.421Z,1.70
2019-06-08T06:27:41.919Z,2.33
2019-06-08T06:30:12.213Z,3.13
2019-06-08T06:32:41.756Z,1.03
2019-06-08T06:35:10.983Z,3.43
2019-06-08T06:37:39.449Z,2.27
2019-06-08T06:40:09.580Z,3.83
2019-06-08T06:42:38.107Z,1.30
2019-06-08T06:45:07.823Z,2.07
2019-06-08T06:47:36.305Z,1.17
2019-06-08T06:50:06.427Z,1.67
2019-06-08T06:52:34.906Z,1.43
2019-06-08T06:55:03.360Z,3.50
2019-06-08T06:57:35.822Z,2.37
2019-06-08T07:00:02.417Z,3.00
2019-06-08T07:02:31.334Z,1.77
2019-06-08T07:04:59.800Z,2.10
2019-06-08T07:07:28.371Z,2.20
2019-06-08T07:09:56.838Z,1.00
2019-06-08T07:12:25.349Z,2.67
2019-06-08T07:14:55.343Z,2.30
2019-06-08T07:17:24.142Z,2.37
2019-06-08T07:19:52.741Z,4.47
2019-06-08T07:22:21.187Z,2.40
2019-06-08T07:24:50.285Z,2.10
2019-06-08T07:27:18.910Z,2.43
2019-06-08T07:29:48.575Z,2.10
2019-06-08T07:32:17.132Z,3.87
2019-06-08T07:34:46.688Z,2.40
2019-06-08T07:37:15.853Z,1.60
2019-06-08T07:39:44.344Z,2.37
2019-06-08T07:42:12.825Z,4.27
2019-06-08T07:44:41.278Z,2.63
2019-06-08T07:47:09.790Z,1.50
2019-06-08T07:49:38.244Z,1.90
2019-06-08T07:52:10.654Z,2.33
2019-06-08T07:54:36.947Z,1.80
2019-06-08T07:57:05.486Z,2.40
2019-06-08T07:59:33.980Z,1.10
2019-06-08T08:02:02.443Z,3.53
2019-06-08T08:04:30.939Z,2.07
2019-06-08T08:06:59.405Z,1.30
2019-06-08T08:09:27.924Z,3.20
2019-06-08T08:11:57.178Z,1.50
2019-06-08T08:14:25.720Z,2.57
2019-06-08T08:16:55.039Z,1.97
2019-06-08T08:19:23.673Z,1.23
2019-06-08T08:21:54.401Z,4.77
2019-06-08T08:24:22.361Z,1.67
2019-06-08T08:26:52.634Z,1.43
2019-06-08T08:29:21.101Z,2.27
2019-06-08T08:31:50.745Z,4.13
2019-06-08T08:34:19.767Z,2.73
2019-06-08T08:36:50.561Z,2.17
2019-06-08T08:39:18.453Z,1.93
2019-06-08T08:41:50.230Z,3.87
2019-06-08T08:44:17.733Z,2.20
2019-06-08T08:46:48.653Z,3.93
2019-06-08T08:49:18.216Z,1.70
2019-06-08T08:51:47.704Z,1.10
2019-06-08T08:54:18.334Z,3.47
2019-06-08T08:56:50.486Z,2.77
2019-06-08T08:59:17.762Z,2.23
2019-06-08T09:01:48.270Z,3.27
2019-06-08T09:04:18.526Z,3.17
2019-06-08T09:06:48.330Z,3.63
2019-06-08T09:09:18.788Z,2.03
2019-06-08T09:11:48.399Z,3.47
2019-06-08T09:14:18.458Z,3.17
2019-06-08T09:16:48.134Z,3.60
2019-06-08T09:19:20.630Z,2.97
2019-06-08T09:21:48.211Z,3.40
2019-06-08T09:24:18.703Z,3.07
2019-06-08T09:26:47.737Z,2.70
2019-06-08T09:29:18.768Z,2.93
2019-06-08T09:31:48.844Z,1.57
2019-06-08T09:34:19.227Z,3.77
2019-06-08T09:36:47.835Z,3.07
2019-06-08T09:39:18.547Z,1.77
2019-06-08T09:41:47.918Z,2.80
2019-06-08T09:44:18.481Z,1.50
2019-06-08T09:46:48.067Z,6.30
2019-06-08T09:49:18.829Z,1.07
2019-06-08T09:51:48.648Z,1.80
2019-06-08T09:54:18.273Z,2.13
2019-06-08T09:56:47.868Z,3.70
2019-06-08T09:59:18.494Z,4.90
2019-06-08T10:01:46.599Z,4.13
2019-06-08T10:04:15.078Z,3.27
2019-06-08T10:06:43.540Z,3.53
2019-06-08T10:09:12.018Z,2.00
2019-06-08T10:11:40.502Z,5.10
2019-06-08T10:14:11.952Z,2.47
2019-06-08T10:16:39.258Z,2.90
2019-06-08T10:19:10.251Z,2.13
2019-06-08T10:21:38.477Z,4.40
2019-06-08T10:24:09.581Z,3.30
2019-06-08T10:26:38.322Z,5.10
2019-06-08T10:29:10.158Z,2.77
2019-06-08T10:31:42.991Z,2.47
2019-06-08T10:34:10.990Z,4.97
2019-06-08T10:36:38.291Z,2.10
2019-06-08T10:39:11.391Z,3.03
2019-06-08T10:41:38.825Z,3.13
2019-06-08T10:44:11.143Z,5.50
2019-06-08T10:46:40.241Z,3.57
2019-06-08T10:49:09.599Z,3.10
2019-06-08T10:51:40.681Z,4.20
2019-06-08T10:54:09.447Z,7.93
2019-06-08T10:56:38.780Z,5.23
2019-06-08T10:59:10.560Z,4.90
2019-06-08T11:01:38.533Z,2.30
2019-06-08T11:04:07.649Z,2.70
2019-06-08T11:06:40.022Z,2.17
2019-06-08T11:09:13.263Z,3.40
2019-06-08T11:11:39.885Z,2.70
2019-06-08T11:14:12.505Z,3.00
2019-06-08T11:16:38.886Z,6.20
2019-06-08T11:19:11.392Z,5.00
2019-06-08T11:21:38.549Z,4.70
2019-06-08T11:24:23.067Z,3.60
2019-06-08T11:26:40.258Z,3.70
2019-06-08T11:29:11.582Z,5.37
2019-06-08T11:31:39.187Z,3.33
2019-06-08T11:34:08.698Z,3.77
2019-06-08T11:36:39.473Z,4.17
2019-06-08T11:39:12.174Z,2.97
2019-06-08T11:41:38.878Z,5.87
2019-06-08T11:44:11.854Z,4.27
2019-06-08T11:46:38.797Z,3.60
2019-06-08T11:49:12.543Z,5.43
2019-06-08T11:51:38.324Z,6.50
2019-06-08T11:54:24.902Z,5.33
2019-06-08T11:56:40.341Z,5.37
2019-06-08T11:59:11.106Z,5.00
2019-06-08T12:01:38.205Z,6.37
2019-06-08T12:04:07.815Z,7.00
2019-06-08T12:06:37.679Z,3.73
2019-06-08T12:09:10.477Z,4.03
2019-06-08T12:11:38.321Z,6.20
2019-06-08T12:14:09.206Z,5.13
2019-06-08T12:16:37.848Z,9.23
2019-06-08T12:19:09.980Z,6.40
2019-06-08T12:21:36.749Z,4.40
2019-06-08T12:24:06.146Z,5.47
2019-06-08T12:26:34.897Z,4.13
2019-06-08T12:29:04.899Z,5.37
2019-06-08T12:31:37.704Z,6.63
2019-06-08T12:34:05.494Z,5.60
2019-06-08T12:36:33.951Z,4.13
2019-06-08T12:39:02.456Z,3.70
2019-06-08T12:41:31.510Z,6.07
2019-06-08T12:44:00.141Z,4.30
2019-06-08T12:46:28.637Z,9.17
2019-06-08T12:48:58.301Z,8.17
2019-06-08T12:51:28.139Z,5.03
2019-06-08T12:53:59.871Z,3.57
2019-06-08T12:56:28.770Z,5.27
2019-06-08T12:58:57.959Z,5.87
2019-06-08T13:01:28.226Z,6.97
2019-06-08T13:03:58.083Z,9.40
2019-06-08T13:06:28.310Z,6.53
2019-06-08T13:08:57.746Z,4.33
2019-06-08T13:11:28.269Z,10.87
2019-06-08T13:13:56.674Z,3.43
2019-06-08T13:16:25.146Z,7.53
2019-06-08T13:18:53.709Z,3.93
2019-06-08T13:21:34.227Z,6.57
2019-06-08T13:23:52.435Z,3.03
2019-06-08T13:26:27.469Z,9.57
2019-06-08T13:28:51.149Z,8.43
2019-06-08T13:31:24.142Z,3.70
2019-06-08T13:33:49.838Z,6.47
2019-06-08T13:36:19.729Z,5.10
2019-06-08T13:38:48.522Z,4.03
2019-06-08T13:41:22.328Z,5.10
2019-06-08T13:43:47.830Z,5.00
2019-06-08T13:46:18.676Z,5.83
2019-06-08T13:48:48.186Z,9.73
2019-06-08T13:51:19.845Z,10.57
2019-06-08T13:53:47.901Z,3.60
2019-06-08T13:56:18.938Z,4.37
2019-06-08T13:58:48.467Z,5.80
2019-06-08T14:01:17.770Z,5.07
2019-06-08T14:03:49.809Z,7.67
2019-06-08T14:06:19.038Z,6.33
2019-06-08T14:08:49.819Z,4.90
2019-06-08T14:11:19.609Z,4.50
2019-06-08T14:13:48.179Z,6.37
2019-06-08T14:16:20.310Z,5.90
2019-06-08T14:18:48.624Z,6.17
2019-06-08T14:21:21.566Z,5.17
2019-06-08T14:23:48.409Z,3.70
2019-06-08T14:26:19.712Z,8.57
2019-06-08T14:28:50.310Z,5.93
2019-06-08T14:31:19.723Z,3.20
2019-06-08T14:33:48.403Z,3.67
2019-06-08T14:36:20.799Z,3.80
2019-06-08T14:38:49.470Z,4.10
2019-06-08T14:41:18.275Z,10.03
2019-06-08T14:43:48.280Z,3.53
2019-06-08T14:46:19.512Z,5.47
2019-06-08T14:48:48.126Z,4.10
2019-06-08T14:51:16.613Z,4.37
2019-06-08T14:53:45.083Z,4.03
2019-06-08T14:56:13.610Z,5.07
2019-06-08T14:58:43.785Z,6.87
2019-06-08T15:01:19.523Z,4.00
2019-06-08T15:03:48.203Z,6.50
2019-06-08T15:06:17.799Z,9.33
2019-06-08T15:08:50.123Z,4.20
2019-06-08T15:11:21.307Z,4.37
2019-06-08T15:13:49.877Z,3.63
2019-06-08T15:16:19.690Z,2.77
2019-06-08T15:18:48.308Z,6.23
2019-06-08T15:21:17.977Z,3.63
2019-06-08T15:23:47.792Z,5.90
2019-06-08T15:26:26.165Z,3.10
2019-06-08T15:28:48.592Z,4.13
2019-06-08T15:31:18.541Z,4.20
2019-06-08T15:33:48.610Z,4.03
2019-06-08T15:36:20.272Z,2.63
2019-06-08T15:38:47.982Z,4.53
2019-06-08T15:41:18.059Z,5.10
2019-06-08T15:43:48.147Z,4.40
2019-06-08T15:46:18.347Z,4.83
2019-06-08T15:48:48.577Z,4.90
2019-06-08T15:51:40.689Z,5.43
2019-06-08T15:54:08.472Z,6.03
2019-06-08T15:56:48.198Z,4.63
2019-06-08T15:59:09.209Z,8.87
2019-06-08T16:01:37.384Z,4.30
2019-06-08T16:04:05.846Z,3.20
2019-06-08T16:06:34.358Z,5.33
2019-06-08T16:09:02.826Z,5.57
2019-06-08T16:11:32.358Z,2.93
2019-06-08T16:14:00.951Z,3.60
2019-06-08T16:16:29.431Z,6.33
2019-06-08T16:18:57.890Z,7.07
2019-06-08T16:21:27.313Z,3.50
2019-06-08T16:23:55.819Z,3.60
2019-06-08T16:26:25.582Z,5.10
2019-06-08T16:28:54.362Z,3.17
2019-06-08T16:31:23.187Z,3.07
2019-06-08T16:33:51.996Z,3.30
2019-06-08T16:36:20.456Z,3.37
2019-06-08T16:38:52.093Z,2.70
2019-06-08T16:41:19.222Z,4.37
2019-06-08T16:43:47.710Z,6.43
2019-06-08T16:46:16.189Z,4.90
2019-06-08T16:48:44.673Z,6.80
2019-06-08T16:51:13.149Z,6.30
2019-06-08T16:53:41.636Z,2.77
2019-06-08T16:56:10.115Z,5.57
2019-06-08T16:58:38.596Z,4.60
2019-06-08T17:01:07.081Z,2.37
2019-06-08T17:03:36.882Z,6.27
2019-06-08T17:06:05.725Z,3.73
2019-06-08T17:08:37.591Z,3.43
2019-06-08T17:11:04.490Z,3.87
2019-06-08T17:13:34.070Z,5.23
2019-06-08T17:16:02.666Z,3.27
2019-06-08T17:18:32.244Z,3.03
2019-06-08T17:21:00.808Z,6.00
2019-06-08T17:23:30.742Z,3.47
2019-06-08T17:25:59.208Z,2.20
2019-06-08T17:28:27.841Z,3.83
2019-06-08T17:30:56.300Z,8.87
2019-06-08T17:33:24.783Z,5.60
2019-06-08T17:35:53.256Z,6.00
2019-06-08T17:38:21.816Z,3.67
2019-06-08T17:40:50.269Z,6.23
2019-06-08T17:43:18.753Z,6.57
2019-06-08T17:45:47.226Z,4.97
2019-06-08T17:48:15.709Z,5.50
2019-06-08T17:50:44.180Z,4.03
2019-06-08T17:53:12.667Z,4.90
2019-06-08T17:55:41.795Z,6.93
2019-06-08T17:58:10.574Z,4.13
2019-06-08T18:00:39.541Z,6.97
2019-06-08T18:03:08.442Z,3.73
2019-06-08T18:05:40.775Z,2.30
2019-06-08T18:08:07.811Z,4.53
2019-06-08T18:10:38.937Z,4.07
2019-06-08T18:13:07.399Z,2.30
2019-06-08T18:15:38.630Z,10.50
2019-06-08T18:18:08.563Z,3.97
2019-06-08T18:20:39.131Z,6.10
2019-06-08T18:23:08.151Z,3.20
2019-06-08T18:25:38.721Z,4.37
2019-06-08T18:28:13.242Z,8.90
2019-06-08T18:30:40.411Z,5.73
2019-06-08T18:33:07.584Z,6.93
2019-06-08T18:35:39.388Z,2.70
2019-06-08T18:38:07.289Z,5.73
2019-06-08T18:40:37.954Z,5.20
2019-06-08T18:43:07.615Z,4.80
2019-06-08T18:45:39.662Z,3.67
2019-06-08T18:48:07.129Z,3.03
2019-06-08T18:50:38.065Z,3.17
2019-06-08T18:53:07.072Z,2.80
2019-06-08T18:55:38.715Z,3.65
2019-06-08T18:58:20.075Z,4.43
2019-06-08T19:00:41.380Z,3.70
2019-06-08T19:03:08.944Z,3.90
2019-06-08T19:05:40.627Z,3.47
2019-06-08T19:08:10.112Z,3.30
2019-06-08T19:10:40.414Z,3.07
2019-06-08T19:13:09.243Z,3.93
2019-06-08T19:15:41.855Z,3.20
2019-06-08T19:18:08.767Z,3.87
2019-06-08T19:20:41.255Z,3.47
2019-06-08T19:23:09.054Z,4.07
2019-06-08T19:25:42.109Z,4.23
2019-06-08T19:28:08.210Z,4.13
2019-06-08T19:30:39.380Z,5.53
2019-06-08T19:33:07.466Z,4.97
2019-06-08T19:35:38.997Z,5.47
2019-06-08T19:38:07.856Z,3.60
2019-06-08T19:40:38.816Z,5.27
2019-06-08T19:43:07.522Z,7.97
2019-06-08T19:45:38.638Z,3.07
2019-06-08T19:48:08.267Z,3.87
2019-06-08T19:50:38.623Z,4.70
2019-06-08T19:53:07.355Z,4.83
2019-06-08T19:55:36.048Z,4.17
2019-06-08T19:58:04.915Z,8.20
2019-06-08T20:00:33.432Z,5.90
2019-06-08T20:03:01.904Z,5.40
2019-06-08T20:05:30.405Z,9.20
2019-06-08T20:07:58.846Z,5.13
2019-06-08T20:10:27.976Z,6.90
2019-06-08T20:12:57.747Z,6.70
2019-06-08T20:15:26.377Z,5.90
2019-06-08T20:17:57.332Z,3.37
2019-06-08T20:20:27.718Z,4.97
2019-06-08T20:22:55.295Z,4.97
2019-06-08T20:25:23.782Z,3.47
2019-06-08T20:27:53.596Z,4.47
2019-06-08T20:30:22.357Z,5.23
2019-06-08T20:32:52.568Z,3.50
2019-06-08T20:35:21.052Z,4.60
2019-06-08T20:37:50.018Z,4.23
2019-06-08T20:40:18.597Z,3.00
2019-06-08T20:42:50.917Z,5.93
2019-06-08T20:45:17.387Z,3.10
2019-06-08T20:47:49.457Z,4.47
2019-06-08T20:50:17.631Z,5.37
2019-06-08T20:52:47.290Z,5.57
2019-06-08T20:55:17.547Z,7.23
2019-06-08T20:57:48.184Z,4.93
2019-06-08T21:00:16.691Z,3.17
2019-06-08T21:02:46.372Z,4.07
2019-06-08T21:05:18.099Z,5.23
2019-06-08T21:07:51.063Z,4.93
2019-06-08T21:10:18.089Z,6.90
2019-06-08T21:12:49.582Z,3.37
2019-06-08T21:15:17.801Z,4.90
2019-06-08T21:17:49.063Z,4.90
2019-06-08T21:20:17.718Z,3.53
2019-06-08T21:22:50.032Z,6.30
2019-06-08T21:25:17.601Z,4.60
2019-06-08T21:27:48.519Z,6.33
2019-06-08T21:30:21.659Z,4.07
2019-06-08T21:32:50.343Z,6.67
2019-06-08T21:35:18.395Z,7.67
2019-06-08T21:37:50.697Z,4.47
2019-06-08T21:40:17.667Z,3.57
2019-06-08T21:42:48.810Z,4.27
2019-06-08T21:45:18.990Z,3.23
2019-06-08T21:47:48.608Z,5.13
2019-06-08T21:50:18.596Z,6.97
2019-06-08T21:52:48.948Z,6.33
2019-06-08T21:55:17.830Z,5.27
2019-06-08T21:57:49.581Z,4.77
2019-06-08T22:00:35.892Z,5.43
2019-06-08T22:02:49.665Z,6.33
2019-06-08T22:05:18.330Z,5.70
2019-06-08T22:07:47.218Z,4.47
2019-06-08T22:10:17.819Z,4.83
2019-06-08T22:12:48.288Z,4.23
2019-06-08T22:15:18.285Z,4.47
2019-06-08T22:17:47.611Z,4.03
2019-06-08T22:20:18.624Z,3.83
2019-06-08T22:22:47.323Z,5.03
2019-06-08T22:25:17.584Z,9.40
2019-06-08T22:27:46.361Z,3.90
2019-06-08T22:30:32.384Z,3.87
2019-06-08T22:32:47.437Z,3.40
2019-06-08T22:35:15.761Z,4.93
2019-06-08T22:37:44.209Z,4.97
2019-06-08T22:40:13.176Z,3.90
2019-06-08T22:42:41.647Z,4.00
2019-06-08T22:45:10.498Z,4.33
2019-06-08T22:47:39.023Z,3.63
2019-06-08T22:50:08.620Z,4.23
2019-06-08T22:52:37.637Z,8.57
2019-06-08T22:55:10.552Z,3.23
2019-06-08T22:57:37.845Z,6.17
2019-06-08T23:00:16.726Z,6.10
2019-06-08T23:02:38.745Z,5.83
2019-06-08T23:05:09.054Z,5.47
2019-06-08T23:07:37.659Z,5.40
2019-06-08T23:10:09.491Z,4.43
2019-06-08T23:12:38.488Z,4.57
2019-06-08T23:15:08.492Z,4.93
2019-06-08T23:17:38.605Z,5.80
2019-06-08T23:20:08.640Z,3.77
2019-06-08T23:22:38.395Z,5.17
2019-06-08T23:25:09.553Z,3.40
2019-06-08T23:27:38.202Z,4.07
2019-06-08T23:30:10.316Z,4.17
2019-06-08T23:32:39.013Z,4.63
2019-06-08T23:35:09.357Z,3.23
2019-06-08T23:37:38.289Z,5.33
2019-06-08T23:40:07.992Z,3.67
2019-06-08T23:42:38.326Z,5.17
2019-06-08T23:45:10.907Z,5.37
2019-06-08T23:47:39.422Z,5.60
2019-06-08T23:50:11.012Z,3.87
2019-06-08T23:52:38.782Z,4.80
2019-06-08T23:55:10.512Z,4.77
2019-06-08T23:57:38.272Z,7.07
